Time;durP1;ratioP1;P1;durP2;ratioP2;P2;SDS_P1;SDS_P2;PMS_P1;PMS_P2;Temp;Humidity;BMP_temperature;BMP_pressure;BME280_temperature;BME280_humidity;BME280_pressure;Samples;Min_cycle;Max_cycle;Signal;HPM_P1;HPM_P2
2023/03/01 00:01:59;;;;;;;;;;;;;;;6.57;94.93;100475.13;5092935;28;20023;-43
2023/03/01 00:04:24;;;;;;;;;;;;;;;6.65;94.02;100475.13;5092731;28;19916;-42
2023/03/01 00:06:50;;;;;;;;;;;;;;;6.63;94.14;100479.75;5093071;28;19916;-42
2023/03/01 00:09:15;;;;;;;;;;;;;;;6.81;95.20;100481.47;5092950;28;19912;-43
2023/03/01 00:11:40;;;;;;;;;;;;;;;6.80;93.18;100483.28;5092672;28;19916;-43
2023/03/01 00:14:06;;;;;;;;;;;;;;;6.86;93.03;100484.47;5092568;28;19927;-44
2023/03/01 00:16:35;;;;;;;;;;;;;;;6.72;94.09;100474.50;5092366;28;19916;-43
2023/03/01 00:19:01;;;;;;;;;;;;;;;6.83;92.05;100477.69;5092835;28;19919;-43
2023/03/01 00:21:27;;;;;;;;;;;;;;;6.71;94.17;100478.13;5092396;28;20014;-43
2023/03/01 00:23:53;;;;;;;;;;;;;;;6.81;93.34;100481.47;5092386;28;20391;-42
2023/03/01 00:26:19;;;;;;;;;;;;;;;6.82;93.36;100477.84;5092328;28;20609;-43
2023/03/01 00:28:44;;;;;;;;;;;;;;;6.76;92.62;100475.81;5092380;28;19969;-43
2023/03/01 00:31:11;;;;;;;;;;;;;;;6.61;94.08;100479.09;5091839;28;19916;-42
2023/03/01 00:33:37;;;;;;;;;;;;;;;6.55;93.43;100478.88;5092340;28;20449;-42
2023/03/01 00:36:02;;;;;;;;;;;;;;;6.26;95.22;100480.94;5092322;28;19998;-43
2023/03/01 00:38:28;;;;;;;;;;;;;;;6.13;95.51;100477.03;5092109;28;19919;-42
2023/03/01 00:40:53;;;;;;;;;;;;;;;6.62;94.25;100474.63;5092435;28;19912;-42
2023/03/01 00:43:19;;;;;;;;;;;;;;;6.45;94.23;100468.44;5092328;28;20351;-42
2023/03/01 00:45:44;;;;;;;;;;;;;;;6.63;93.64;100461.25;5092232;28;20007;-43
2023/03/01 00:48:09;;;;;;;;;;;;;;;6.55;93.83;100458.56;5092273;28;19920;-42
2023/03/01 00:50:35;;;;;;;;;;;;;;;6.78;93.41;100450.88;5092048;28;19912;-42
2023/03/01 00:53:00;;;;;;;;;;;;;;;6.71;93.54;100455.16;5092069;28;20324;-42
2023/03/01 00:55:25;;;;;;;;;;;;;;;6.44;94.59;100451.75;5092266;28;20363;-42
2023/03/01 00:57:51;;;;;;;;;;;;;;;6.67;93.47;100443.25;5091974;28;19936;-42
2023/03/01 01:00:17;;;;;;;;;;;;;;;6.76;93.34;100446.72;5092053;28;19912;-43
2023/03/01 01:02:42;;;;;;;;;;;;;;;6.70;94.13;100442.06;5092032;28;20370;-42
2023/03/01 01:05:08;;;;;;;;;;;;;;;6.73;93.31;100442.59;5092022;28;19917;-42
2023/03/01 01:07:33;;;;;;;;;;;;;;;6.88;92.39;100436.69;5091048;28;19985;-42
2023/03/01 01:09:58;;;;;;;;;;;;;;;6.64;93.00;100440.91;5091611;28;19916;-42
2023/03/01 01:12:23;;;;;;;;;;;;;;;6.59;93.66;100438.75;5091552;28;19912;-42
2023/03/01 01:14:49;;;;;;;;;;;;;;;6.60;93.62;100434.28;5090949;28;20464;-42
2023/03/01 01:17:14;;;;;;;;;;;;;;;6.72;93.16;100434.81;5091398;28;19982;-43
2023/03/01 01:19:39;;;;;;;;;;;;;;;6.77;92.51;100432.50;5091607;28;19912;-43
2023/03/01 01:22:05;;;;;;;;;;;;;;;6.62;91.63;100430.47;5091165;28;19927;-42
2023/03/01 01:24:30;;;;;;;;;;;;;;;6.64;92.46;100428.53;5091248;28;19931;-43
2023/03/01 01:26:55;;;;;;;;;;;;;;;6.84;93.46;100431.72;5091546;28;19912;-43
2023/03/01 01:29:20;;;;;;;;;;;;;;;6.71;90.88;100390.84;5091865;28;19912;-43
2023/03/01 01:31:46;;;;;;;;;;;;;;;7.02;92.10;100436.03;5091687;28;20354;-43
2023/03/01 01:34:16;;;;;;;;;;;;;;;6.80;92.93;100427.72;5092082;28;19935;-42
2023/03/01 01:36:41;;;;;;;;;;;;;;;6.75;93.74;100430.03;5091830;28;19998;-43
2023/03/01 01:39:07;;;;;;;;;;;;;;;6.85;92.10;100430.72;5091820;28;19951;-43
2023/03/01 01:41:32;;;;;;;;;;;;;;;6.59;93.42;100425.53;5091884;28;19912;-43
2023/03/01 01:44:15;;;;;;;;;;;;;;;6.76;93.20;100423.75;5091360;28;19916;-43
2023/03/01 01:46:55;;;;;;;;;;;;;;;6.54;93.33;100421.72;5091885;28;20014;-43
2023/03/01 01:49:23;;;;;;;;;;;;;;;6.55;93.35;100424.19;5092167;28;20358;-43
2023/03/01 01:51:51;;;;;;;;;;;;;;;7.11;91.99;100426.28;5091641;28;19999;-43
2023/03/01 01:54:19;;;;;;;;;;;;;;;7.13;91.08;100426.97;5090575;28;19916;-43
2023/03/01 01:56:48;;;;;;;;;;;;;;;7.02;90.97;100430.75;5091139;28;19955;-43
2023/03/01 01:59:14;;;;;;;;;;;;;;;6.87;91.22;100414.66;5091480;28;19943;-43
2023/03/01 02:01:39;;;;;;;;;;;;;;;6.97;92.09;100420.66;5091984;28;19951;-42
2023/03/01 02:04:06;;;;;;;;;;;;;;;6.42;93.19;100418.53;5091673;28;20346;-43
2023/03/01 02:06:37;;;;;;;;;;;;;;;6.68;93.75;100412.31;5091691;28;19915;-42
2023/03/01 02:09:12;;;;;;;;;;;;;;;6.69;92.74;100424.56;5091735;28;19935;-42
2023/03/01 02:11:38;;;;;;;;;;;;;;;6.55;94.07;100415.41;5091639;28;19912;-42
2023/03/01 02:14:04;;;;;;;;;;;;;;;6.79;93.30;100418.13;5090049;28;19912;-42
2023/03/01 02:16:30;;;;;;;;;;;;;;;6.75;93.07;100418.63;5091712;28;20416;-43
2023/03/01 02:18:56;;;;;;;;;;;;;;;6.80;93.47;100417.16;5091328;28;19999;-42
2023/03/01 02:21:27;;;;;;;;;;;;;;;6.52;93.93;100406.00;5091315;28;20050;-42
2023/03/01 02:23:53;;;;;;;;;;;;;;;6.39;95.32;100410.91;5090980;28;20011;-42
2023/03/01 02:26:20;;;;;;;;;;;;;;;6.61;95.11;100417.44;5091560;28;19912;-42
2023/03/01 02:28:46;;;;;;;;;;;;;;;6.52;95.80;100413.94;5091467;28;19912;-42
2023/03/01 02:34:00;;;;;;;;;;;;;;;6.52;93.90;100410.47;5091632;28;20469;-42
2023/03/01 02:36:28;;;;;;;;;;;;;;;6.67;95.28;100411.50;5091536;28;20443;-43
2023/03/01 02:38:56;;;;;;;;;;;;;;;6.75;95.14;100415.97;5091211;28;19971;-43
2023/03/01 02:41:23;;;;;;;;;;;;;;;6.51;94.62;100414.09;5091337;28;19919;-43
2023/03/01 02:43:48;;;;;;;;;;;;;;;6.46;96.15;100411.94;5091401;28;19923;-43
2023/03/01 02:46:25;;;;;;;;;;;;;;;6.52;95.31;100415.75;5091434;28;20333;-43
2023/03/01 02:48:52;;;;;;;;;;;;;;;6.54;95.07;100406.66;5091222;28;19925;-43
2023/03/01 02:51:17;;;;;;;;;;;;;;;6.48;95.05;100409.13;5091320;28;19919;-43
2023/03/01 02:53:56;;;;;;;;;;;;;;;6.39;96.52;100408.28;5092524;28;19912;-43
2023/03/01 02:56:21;;;;;;;;;;;;;;;6.18;97.76;100412.16;5094800;28;20332;-42
2023/03/01 02:58:51;;;;;;;;;;;;;;;6.37;96.88;100400.50;5094414;28;19969;-43
2023/03/01 03:01:16;;;;;;;;;;;;;;;6.36;97.48;100409.44;5095113;28;20334;-42
2023/03/01 03:03:42;;;;;;;;;;;;;;;6.60;95.87;100407.84;5094891;28;20356;-42
2023/03/01 03:06:07;;;;;;;;;;;;;;;6.42;96.15;100402.69;5094609;28;19969;-42
2023/03/01 03:08:32;;;;;;;;;;;;;;;6.29;97.06;100404.94;5094423;28;19912;-42
2023/03/01 03:10:58;;;;;;;;;;;;;;;6.33;98.04;100408.91;5094713;28;19912;-42
2023/03/01 03:13:28;;;;;;;;;;;;;;;6.20;96.84;100417.28;5094537;28;19916;-42
2023/03/01 03:15:53;;;;;;;;;;;;;;;6.40;97.24;100400.19;5094588;28;19912;-42
2023/03/01 03:18:19;;;;;;;;;;;;;;;6.55;96.58;100400.41;5094378;28;19986;-42
2023/03/01 03:20:44;;;;;;;;;;;;;;;6.56;95.34;100402.03;5094039;28;20049;-42
2023/03/01 03:23:09;;;;;;;;;;;;;;;6.57;96.34;100394.97;5094211;28;20277;-42
2023/03/01 03:25:37;;;;;;;;;;;;;;;6.36;96.66;100398.00;5093802;28;20440;-42
2023/03/01 03:28:09;;;;;;;;;;;;;;;6.55;96.05;100403.03;5094358;28;19919;-42
2023/03/01 03:30:35;;;;;;;;;;;;;;;6.37;96.04;100404.97;5094495;28;19912;-42
2023/03/01 03:33:01;;;;;;;;;;;;;;;6.21;98.96;100411.03;5094390;28;19928;-42
2023/03/01 03:35:30;;;;;;;;;;;;;;;6.51;97.93;100407.00;5094048;28;20283;-42
2023/03/01 03:38:01;;;;;;;;;;;;;;;6.55;96.83;100403.03;5094474;28;19916;-41
2023/03/01 03:40:28;;;;;;;;;;;;;;;6.62;95.94;100398.75;5094064;28;19947;-41
2023/03/01 03:42:53;;;;;;;;;;;;;;;6.46;96.82;100399.53;5094087;28;19912;-43
2023/03/01 03:45:19;;;;;;;;;;;;;;;6.24;98.70;100414.19;5094340;28;20010;-42
2023/03/01 03:47:44;;;;;;;;;;;;;;;5.93;98.87;100402.44;5093739;28;20011;-42
2023/03/01 03:50:10;;;;;;;;;;;;;;;6.31;98.49;100393.22;5093712;28;20390;-42
2023/03/01 03:52:36;;;;;;;;;;;;;;;6.44;98.11;100384.84;5093768;28;19999;-42
2023/03/01 03:55:01;;;;;;;;;;;;;;;6.31;98.17;100390.56;5093397;28;20383;-43
2023/03/01 03:57:27;;;;;;;;;;;;;;;5.97;98.99;100395.88;5093606;28;20368;-43
2023/03/01 03:59:52;;;;;;;;;;;;;;;6.17;100.00;100397.28;5093781;28;19912;-42
2023/03/01 04:02:21;;;;;;;;;;;;;;;6.37;99.38;100404.97;5093836;28;19919;-42
2023/03/01 04:04:49;;;;;;;;;;;;;;;6.00;98.95;100403.50;5093130;28;20414;-42
2023/03/01 04:07:15;;;;;;;;;;;;;;;6.00;99.56;100400.84;5092873;28;19916;-42
2023/03/01 04:09:42;;;;;;;;;;;;;;;6.22;98.47;100402.91;5093218;28;19968;-43
2023/03/01 04:12:07;;;;;;;;;;;;;;;6.00;100.00;100398.22;5093362;28;19912;-42
2023/03/01 04:14:33;;;;;;;;;;;;;;;5.90;100.00;100395.63;5093382;28;19931;-43
2023/03/01 04:16:58;;;;;;;;;;;;;;;6.05;100.00;100399.41;5091911;28;20285;-41
2023/03/01 04:19:23;;;;;;;;;;;;;;;6.05;100.00;100404.69;5093190;28;19923;-41
2023/03/01 04:21:49;;;;;;;;;;;;;;;6.17;99.36;100410.50;5092548;28;19920;-42
2023/03/01 04:24:14;;;;;;;;;;;;;;;6.15;99.42;100412.47;5093141;28;19926;-43
2023/03/01 04:26:39;;;;;;;;;;;;;;;6.23;99.25;100403.75;5093008;28;19977;-43
2023/03/01 04:29:05;;;;;;;;;;;;;;;6.41;98.19;100401.00;5092990;28;19912;-43
2023/03/01 04:31:30;;;;;;;;;;;;;;;6.11;99.74;100405.88;5092977;28;19912;-43
2023/03/01 04:33:55;;;;;;;;;;;;;;;5.85;99.35;100403.22;5093170;28;19994;-43
2023/03/01 04:36:25;;;;;;;;;;;;;;;6.28;99.93;100401.44;5093214;28;20326;-43
2023/03/01 04:38:51;;;;;;;;;;;;;;;6.04;99.31;100415.41;5093163;28;19954;-42
2023/03/01 04:41:17;;;;;;;;;;;;;;;6.18;99.09;100412.16;5092843;28;19939;-42
2023/03/01 04:43:43;;;;;;;;;;;;;;;6.51;98.10;100407.00;5092742;28;19923;-43
2023/03/01 04:46:10;;;;;;;;;;;;;;;6.35;98.02;100414.88;5092459;28;19912;-43
2023/03/01 04:48:36;;;;;;;;;;;;;;;6.37;97.86;100412.88;5092461;28;19919;-43
2023/03/01 04:51:02;;;;;;;;;;;;;;;6.54;97.43;100411.94;5092596;28;19934;-43
2023/03/01 04:53:28;;;;;;;;;;;;;;;6.56;97.09;100414.44;5092484;28;19969;-43
2023/03/01 04:55:56;;;;;;;;;;;;;;;6.20;97.44;100410.16;5097061;28;19916;-42
2023/03/01 04:58:23;;;;;;;;;;;;;;;6.04;99.65;100408.28;5101418;28;19923;-43
2023/03/01 05:00:48;;;;;;;;;;;;;;;6.01;99.43;100416.53;5107583;28;20348;-43
2023/03/01 05:03:17;;;;;;;;;;;;;;;6.18;98.83;100416.63;5092608;28;19912;-43
2023/03/01 05:05:44;;;;;;;;;;;;;;;6.20;99.11;100407.53;5091893;28;20312;-43
2023/03/01 05:08:17;;;;;;;;;;;;;;;7.29;100.00;100416.38;5091062;28;19923;-43
2023/03/01 05:10:43;;;;;;;;;;;;;;;6.65;96.22;100410.84;5091976;28;19908;-41
2023/03/01 05:13:08;;;;;;;;;;;;;;;6.46;96.84;100401.34;5092063;28;19971;-42
2023/03/01 05:15:33;;;;;;;;;;;;;;;6.48;97.65;100399.38;5092435;28;19915;-42
2023/03/01 05:17:59;;;;;;;;;;;;;;;6.46;98.13;100406.66;5090864;28;20422;-43
2023/03/01 05:20:28;;;;;;;;;;;;;;;6.14;99.15;100407.34;5091262;28;20353;-43
2023/03/01 05:22:58;;;;;;;;;;;;;;;6.24;98.34;100406.25;5091637;28;19996;-43
2023/03/01 05:25:23;;;;;;;;;;;;;;;6.21;99.41;100411.03;5092186;28;20422;-43
2023/03/01 05:27:49;;;;;;;;;;;;;;;6.25;98.30;100409.72;5091573;28;19912;-43
2023/03/01 05:30:14;;;;;;;;;;;;;;;6.13;98.99;100401.25;5091740;28;19916;-42
2023/03/01 05:32:40;;;;;;;;;;;;;;;6.21;99.88;100403.91;5091587;28;19923;-42
2023/03/01 05:35:06;;;;;;;;;;;;;;;6.30;99.92;100411.88;5091669;28;19912;-43
2023/03/01 05:37:31;;;;;;;;;;;;;;;6.35;97.79;100414.88;5091389;28;19923;-37
2023/03/01 05:39:56;;;;;;;;;;;;;;;6.27;98.16;100420.94;5091274;28;20010;-37
2023/03/01 05:42:22;;;;;;;;;;;;;;;6.47;98.23;100421.50;5091073;28;19920;-37
2023/03/01 05:44:47;;;;;;;;;;;;;;;6.22;99.16;100421.41;5077870;28;20002;-36
2023/03/01 05:47:12;;;;;;;;;;;;;;;6.18;98.60;100422.72;5111736;28;19912;-37
2023/03/01 05:49:38;;;;;;;;;;;;;;;6.30;98.98;100425.91;5111978;28;19919;-37
2023/03/01 05:52:03;;;;;;;;;;;;;;;6.19;98.90;100421.75;5107902;28;20018;-36
2023/03/01 05:54:28;;;;;;;;;;;;;;;6.16;97.41;100426.50;5090991;28;20378;-36
2023/03/01 05:56:53;;;;;;;;;;;;;;;6.04;99.13;100431.25;5089756;28;20275;-36
2023/03/01 05:59:19;;;;;;;;;;;;;;;6.00;99.31;100432.56;5090358;28;19919;-41
2023/03/01 06:01:44;;;;;;;;;;;;;;;6.18;98.99;100435.13;5091128;28;20007;-36
2023/03/01 06:04:10;;;;;;;;;;;;;;;6.25;99.51;100441.44;5090973;28;19916;-43
2023/03/01 06:06:39;;;;;;;;;;;;;;;6.26;98.61;100445.72;5090446;28;19919;-42
2023/03/01 06:09:06;;;;;;;;;;;;;;;6.45;97.98;100439.34;5090134;28;20002;-42
2023/03/01 06:11:33;;;;;;;;;;;;;;;6.58;97.61;100439.72;5090928;28;19916;-43
2023/03/01 06:13:58;;;;;;;;;;;;;;;6.37;97.86;100440.16;5091135;28;19912;-42
2023/03/01 06:16:23;;;;;;;;;;;;;;;6.64;97.04;100428.53;5091180;28;19981;-43
2023/03/01 06:18:49;;;;;;;;;;;;;;;6.65;96.39;100446.03;5091033;28;19912;-43
2023/03/01 06:21:14;;;;;;;;;;;;;;;6.70;95.75;100440.28;5090917;28;19969;-43
2023/03/01 06:23:39;;;;;;;;;;;;;;;6.80;96.58;100443.59;5091134;28;19920;-43
2023/03/01 06:26:06;;;;;;;;;;;;;;;6.81;96.17;100434.66;5091410;28;19926;-43
2023/03/01 06:28:31;;;;;;;;;;;;;;;6.67;96.67;100440.59;5091874;28;20290;-42
2023/03/01 06:30:56;;;;;;;;;;;;;;;7.22;94.53;100445.31;5094609;28;19919;-43
2023/03/01 06:33:23;;;;;;;;;;;;;;;6.90;94.59;100440.00;5094932;28;19912;-44
2023/03/01 06:35:49;;;;;;;;;;;;;;;6.77;95.86;100454.50;5094817;28;19916;-42
2023/03/01 06:38:14;;;;;;;;;;;;;;;6.58;97.73;100444.19;5094780;28;19930;-43
2023/03/01 06:40:40;;;;;;;;;;;;;;;6.76;96.65;100449.38;5094536;28;20318;-44
2023/03/01 06:43:07;;;;;;;;;;;;;;;6.65;96.58;100440.75;5094732;28;20359;-43
2023/03/01 06:45:32;;;;;;;;;;;;;;;6.63;97.85;100441.91;5094253;28;19930;-42
2023/03/01 06:48:07;;;;;;;;;;;;;;;6.68;96.94;100442.22;5094615;28;19912;-42
2023/03/01 06:50:33;;;;;;;;;;;;;;;6.78;99.03;100448.22;5094222;28;19998;-42
2023/03/01 06:52:58;;;;;;;;;;;;;;;7.22;96.66;100445.31;5094105;28;20050;-42
2023/03/01 06:55:23;;;;;;;;;;;;;;;7.20;94.95;100449.97;5093306;28;20336;-42
2023/03/01 06:57:53;;;;;;;;;;;;;;;7.30;93.99;100448.97;5092934;28;19919;-42
2023/03/01 07:00:19;;;;;;;;;;;;;;;7.35;92.24;100452.78;5093125;28;19980;-42
2023/03/01 07:02:44;;;;;;;;;;;;;;;7.69;91.06;100457.09;5093087;28;20303;-42
2023/03/01 07:05:09;;;;;;;;;;;;;;;7.82;89.86;100453.91;5093004;28;19955;-43
2023/03/01 07:07:34;;;;;;;;;;;;;;;8.50;87.05;100444.63;5092786;28;19912;-43
2023/03/01 07:10:00;;;;;;;;;;;;;;;8.59;84.88;100446.25;5093383;28;19955;-42
2023/03/01 07:12:25;;;;;;;;;;;;;;;7.84;88.49;100451.91;5093201;28;19912;-42
2023/03/01 07:14:50;;;;;;;;;;;;;;;7.46;90.93;100445.50;5093345;28;19916;-43
2023/03/01 07:17:16;;;;;;;;;;;;;;;7.42;91.79;100448.50;5093227;28;19912;-43
2023/03/01 07:19:41;;;;;;;;;;;;;;;7.95;90.79;100453.38;5093743;28;20010;-43
2023/03/01 07:22:07;;;;;;;;;;;;;;;8.39;87.73;100445.78;5092927;28;20288;-42
2023/03/01 07:24:33;;;;;;;;;;;;;;;7.31;91.52;100447.97;5093371;28;19997;-43
2023/03/01 07:26:58;;;;;;;;;;;;;;;7.23;93.78;100448.78;5093263;28;20344;-42
2023/03/01 07:29:23;;;;;;;;;;;;;;;7.37;93.52;100442.03;5093237;28;19916;-44
2023/03/01 07:31:49;;;;;;;;;;;;;;;8.00;90.32;100453.72;5093493;28;19938;-42
2023/03/01 07:34:14;;;;;;;;;;;;;;;7.66;90.09;100448.63;5092814;28;20348;-42
2023/03/01 07:36:42;;;;;;;;;;;;;;;7.60;91.98;100443.00;5092755;28;19923;-43
2023/03/01 07:39:08;;;;;;;;;;;;;;;7.49;92.42;100439.88;5092903;28;19965;-43
2023/03/01 07:41:33;;;;;;;;;;;;;;;7.54;92.64;100442.84;5091780;28;19919;-43
2023/03/01 07:43:58;;;;;;;;;;;;;;;7.89;89.33;100438.16;5092775;28;19920;-42
2023/03/01 07:46:23;;;;;;;;;;;;;;;7.48;91.00;100431.09;5093265;28;20022;-42
2023/03/01 07:48:49;;;;;;;;;;;;;;;7.40;91.72;100428.44;5092934;28;20052;-42
2023/03/01 07:51:14;;;;;;;;;;;;;;;7.56;92.50;100433.75;5092907;28;19954;-43
2023/03/01 07:53:39;;;;;;;;;;;;;;;8.09;89.68;100436.81;5092559;28;19912;-43
2023/03/01 07:56:09;;;;;;;;;;;;;;;8.10;88.63;100435.78;5092562;28;19999;-43
2023/03/01 07:58:35;;;;;;;;;;;;;;;7.84;89.81;100441.31;5092457;28;19912;-42
2023/03/01 08:01:02;;;;;;;;;;;;;;;7.60;90.92;100428.94;5092283;28;19923;-42
2023/03/01 08:03:27;;;;;;;;;;;;;;;7.74;90.95;100430.91;5092936;28;19912;-42
2023/03/01 08:05:52;;;;;;;;;;;;;;;7.99;90.02;100434.31;5092753;28;19919;-42
2023/03/01 08:08:18;;;;;;;;;;;;;;;7.77;89.50;100435.88;5092672;28;20335;-41
2023/03/01 08:10:43;;;;;;;;;;;;;;;7.60;90.17;100437.72;5092703;28;19952;-42
2023/03/01 08:13:08;;;;;;;;;;;;;;;7.52;90.15;100437.72;5092523;28;19912;-43
2023/03/01 08:15:34;;;;;;;;;;;;;;;7.93;89.43;100428.88;5092491;28;20284;-44
2023/03/01 08:17:59;;;;;;;;;;;;;;;8.20;87.36;100428.44;5092660;28;20262;-43
2023/03/01 08:20:24;;;;;;;;;;;;;;;7.69;90.01;100430.59;5091889;28;19916;-42
2023/03/01 08:22:50;;;;;;;;;;;;;;;7.31;91.14;100432.94;5091733;28;19924;-42
2023/03/01 08:25:15;;;;;;;;;;;;;;;7.38;91.66;100441.84;5092031;28;20040;-43
2023/03/01 08:27:40;;;;;;;;;;;;;;;7.85;89.70;100439.50;5092242;28;19947;-43
2023/03/01 08:30:06;;;;;;;;;;;;;;;7.65;88.92;100431.91;5091880;28;20296;-42
2023/03/01 08:32:35;;;;;;;;;;;;;;;7.37;90.34;100429.63;5091658;28;19973;-42
2023/03/01 08:35:00;;;;;;;;;;;;;;;7.08;93.31;100422.13;5091972;28;20002;-43
2023/03/01 08:37:26;;;;;;;;;;;;;;;7.58;90.55;100433.59;5092287;28;20364;-44
2023/03/01 08:39:51;;;;;;;;;;;;;;;7.15;91.40;100428.44;5091933;28;20010;-43
2023/03/01 08:42:16;;;;;;;;;;;;;;;7.33;92.17;100427.44;5091912;28;20388;-42
2023/03/01 08:44:42;;;;;;;;;;;;;;;7.32;92.27;100429.28;5090328;28;19916;-42
2023/03/01 08:47:07;;;;;;;;;;;;;;;7.46;92.54;100426.94;5091551;28;19912;-42
2023/03/01 08:49:32;;;;;;;;;;;;;;;7.65;91.26;100431.91;5091611;28;19970;-42
2023/03/01 08:51:58;;;;;;;;;;;;;;;7.59;90.86;100428.09;5091445;28;19912;-42
2023/03/01 08:54:23;;;;;;;;;;;;;;;7.31;91.38;100435.56;5091148;28;20015;-42
2023/03/01 08:56:48;;;;;;;;;;;;;;;7.54;92.81;100435.72;5091439;28;19912;-43
2023/03/01 08:59:14;;;;;;;;;;;;;;;7.50;91.86;100431.78;5091315;28;19930;-42
2023/03/01 09:01:42;;;;;;;;;;;;;;;7.25;92.34;100433.56;5091308;28;20419;-42
2023/03/01 09:04:08;;;;;;;;;;;;;;;7.28;93.10;100425.31;5091032;28;19928;-42
2023/03/01 09:06:34;;;;;;;;;;;;;;;7.39;93.66;100421.50;5091104;28;19995;-42
2023/03/01 09:09:00;;;;;;;;;;;;;;;7.82;91.96;100433.56;5091310;28;20346;-41
2023/03/01 09:11:25;;;;;;;;;;;;;;;7.69;91.31;100424.44;5091246;28;20326;-42
2023/03/01 09:13:50;;;;;;;;;;;;;;;7.75;90.53;100423.75;5090893;28;19934;-43
2023/03/01 09:16:17;;;;;;;;;;;;;;;7.97;90.06;100427.53;5090673;28;19989;-42
2023/03/01 09:18:43;;;;;;;;;;;;;;;8.28;87.76;100432.94;5090757;28;19920;-42
2023/03/01 09:21:10;;;;;;;;;;;;;;;7.75;89.86;100429.91;5090575;28;19924;-43
2023/03/01 09:23:38;;;;;;;;;;;;;;;7.54;91.67;100432.25;5090388;28;20553;-42
2023/03/01 09:26:03;;;;;;;;;;;;;;;7.82;90.08;100433.56;5087627;28;20303;-42
2023/03/01 09:28:29;;;;;;;;;;;;;;;8.06;89.03;100434.47;5090197;28;19912;-42
2023/03/01 09:30:57;;;;;;;;;;;;;;;7.99;88.15;100430.84;5090529;28;19919;-42
2023/03/01 09:33:22;;;;;;;;;;;;;;;7.79;91.17;100430.41;5087918;28;19920;-42
2023/03/01 09:35:48;;;;;;;;;;;;;;;7.57;90.36;100424.78;5090280;28;19912;-42
2023/03/01 09:38:13;;;;;;;;;;;;;;;7.94;91.02;100419.91;5090376;28;19977;-42
2023/03/01 09:40:43;;;;;;;;;;;;;;;8.29;88.07;100416.00;5090081;28;19989;-41
2023/03/01 09:43:15;;;;;;;;;;;;;;;8.22;89.48;100420.34;5088375;28;19912;-42
2023/03/01 09:45:43;;;;;;;;;;;;;;;7.93;88.83;100424.41;5090851;28;19916;-43
2023/03/01 09:48:23;;;;;;;;;;;;;;;8.07;91.04;100430.81;5088418;28;19919;-42
2023/03/01 09:50:50;;;;;;;;;;;;;;;8.23;88.98;100412.22;5088416;28;20304;-43
2023/03/01 09:53:20;;;;;;;;;;;;;;;7.76;91.81;100418.31;5090837;28;19912;-43
2023/03/01 09:55:51;;;;;;;;;;;;;;;7.72;91.92;100411.69;5090899;28;19954;-42
2023/03/01 09:58:23;;;;;;;;;;;;;;;8.21;90.00;100411.56;5090846;28;19948;-42
2023/03/01 10:00:49;;;;;;;;;;;;;;;8.30;88.38;100398.25;5088848;28;19912;-41
2023/03/01 10:03:22;;;;;;;;;;;;;;;8.01;90.17;100400.53;5090890;28;19947;-43
2023/03/01 10:06:00;;;;;;;;;;;;;;;7.59;91.75;100398.13;5094606;28;19923;-42
2023/03/01 10:08:58;;;;;;;;;;;;;;;8.03;92.04;100408.28;5093888;28;19938;-42
2023/03/01 10:11:26;;;;;;;;;;;;;;;7.81;91.06;100402.72;5081507;28;19916;-44
2023/03/01 10:13:53;;;;;;;;;;;;;;;7.84;91.27;100398.91;5094870;28;19937;-43
2023/03/01 10:16:26;;;;;;;;;;;;;;;7.58;90.56;100405.25;5094099;28;20006;-43
2023/03/01 10:18:54;;;;;;;;;;;;;;;7.78;90.35;100392.47;5094656;28;19920;-43
2023/03/01 10:21:20;;;;;;;;;;;;;;;8.01;89.78;100391.75;5092977;28;20022;-43
2023/03/01 10:23:46;;;;;;;;;;;;;;;7.93;89.92;100397.06;5092509;28;20428;-43
2023/03/01 10:26:17;;;;;;;;;;;;;;;8.12;89.21;100394.03;5093787;28;20350;-42
2023/03/01 10:29:09;;;;;;;;;;;;;;;7.96;90.85;100394.91;5093350;28;19912;-42
2023/03/01 10:31:39;;;;;;;;;;;;;;;7.83;91.11;100392.78;5091927;28;19970;-42
2023/03/01 10:34:15;;;;;;;;;;;;;;;7.67;92.15;100402.59;5093922;28;19913;-42
2023/03/01 10:36:41;;;;;;;;;;;;;;;7.69;91.67;100390.00;5093874;28;19943;-43
2023/03/01 10:39:32;;;;;;;;;;;;;;;8.06;93.65;100389.41;5094479;28;19995;-44
2023/03/01 10:41:58;;;;;;;;;;;;;;;8.50;89.62;100388.91;5092064;28;19912;-42
2023/03/01 10:44:43;;;;;;;;;;;;;;;7.90;91.81;100397.41;5094361;28;20402;-42
2023/03/01 10:47:13;;;;;;;;;;;;;;;8.07;92.30;100399.00;5094101;28;20257;-42
2023/03/01 10:49:39;;;;;;;;;;;;;;;8.17;89.52;100389.03;5094098;28;20003;-43
2023/03/01 10:52:17;;;;;;;;;;;;;;;8.50;89.04;100378.31;5093970;28;19947;-43
2023/03/01 10:54:51;;;;;;;;;;;;;;;8.18;89.17;100384.56;5093796;28;19916;-43
2023/03/01 10:57:28;;;;;;;;;;;;;;;8.36;88.93;100379.84;5093752;28;20376;-43
2023/03/01 11:00:00;;;;;;;;;;;;;;;8.60;88.32;100372.78;5093729;28;19923;-42
2023/03/01 11:02:29;;;;;;;;;;;;;;;8.68;87.14;100372.75;5093627;28;19959;-44
2023/03/01 11:05:00;;;;;;;;;;;;;;;8.40;87.78;100362.56;5093742;28;19927;-43
2023/03/01 11:07:26;;;;;;;;;;;;;;;8.26;88.30;100362.47;5093851;28;19912;-43
2023/03/01 11:09:51;;;;;;;;;;;;;;;8.38;88.32;100347.84;5093764;28;19912;-43
2023/03/01 11:12:16;;;;;;;;;;;;;;;8.12;88.22;100346.31;5093716;28;19912;-43
2023/03/01 11:14:50;;;;;;;;;;;;;;;7.72;90.63;100349.94;5091621;28;19916;-43
2023/03/01 11:17:18;;;;;;;;;;;;;;;7.74;92.54;100340.00;5093632;28;19913;-42
2023/03/01 11:20:00;;;;;;;;;;;;;;;7.38;93.34;100340.41;5093697;28;19912;-43
2023/03/01 11:22:25;;;;;;;;;;;;;;;7.64;93.22;100341.00;5093560;28;19943;-42
2023/03/01 11:24:52;;;;;;;;;;;;;;;8.00;92.48;100331.78;5093450;28;20341;-43
2023/03/01 11:27:17;;;;;;;;;;;;;;;8.46;88.35;100334.56;5093348;28;19916;-43
2023/03/01 11:29:55;;;;;;;;;;;;;;;8.14;89.67;100330.22;5093584;28;19933;-42
2023/03/01 11:32:24;;;;;;;;;;;;;;;7.68;91.11;100338.84;5093481;28;19912;-44
2023/03/01 11:35:07;;;;;;;;;;;;;;;7.72;89.51;100329.56;5093179;28;19912;-43
2023/03/01 11:37:39;;;;;;;;;;;;;;;7.98;89.04;100315.25;5093229;28;19912;-43
2023/03/01 11:40:17;;;;;;;;;;;;;;;7.65;91.30;100294.13;5093110;28;19916;-42
2023/03/01 11:42:51;;;;;;;;;;;;;;;7.87;91.09;100308.47;5093052;28;19916;-44
2023/03/01 11:45:17;;;;;;;;;;;;;;;7.54;92.55;100310.41;5092416;28;20245;-42
2023/03/01 11:47:51;;;;;;;;;;;;;;;7.86;90.83;100304.16;5092838;28;19922;-43
2023/03/01 11:50:16;;;;;;;;;;;;;;;7.71;90.62;100308.53;5093003;28;19927;-42
2023/03/01 11:53:02;;;;;;;;;;;;;;;7.67;91.79;100305.41;5092461;28;19953;-43
2023/03/01 11:55:37;;;;;;;;;;;;;;;7.68;90.56;100311.53;5092220;28;19934;-42
2023/03/01 11:58:24;;;;;;;;;;;;;;;7.85;91.57;100291.13;5093204;28;19935;-43
2023/03/01 12:01:08;;;;;;;;;;;;;;;8.02;88.23;100296.16;5093511;28;19959;-43
2023/03/01 12:03:43;;;;;;;;;;;;;;;7.69;89.13;100306.06;5092645;28;20368;-44
2023/03/01 12:06:08;;;;;;;;;;;;;;;7.50;90.64;100317.88;5092642;28;20025;-42
2023/03/01 12:09:02;;;;;;;;;;;;;;;7.56;91.03;100309.25;5092524;28;20375;-42
2023/03/01 12:11:28;;;;;;;;;;;;;;;8.46;88.12;100291.31;5087785;28;19990;-43
2023/03/01 12:13:59;;;;;;;;;;;;;;;8.19;87.83;100290.78;5092890;28;20328;-43
2023/03/01 12:16:44;;;;;;;;;;;;;;;8.33;87.08;100266.13;5092347;28;19927;-42
2023/03/01 12:19:37;;;;;;;;;;;;;;;7.92;87.29;100286.75;5081035;28;19934;-42
2023/03/01 12:22:20;;;;;;;;;;;;;;;7.85;89.83;100293.75;5092009;28;20415;-42
2023/03/01 12:24:45;;;;;;;;;;;;;;;7.78;88.57;100291.78;5092000;28;19969;-42
2023/03/01 12:27:29;;;;;;;;;;;;;;;8.08;87.41;100284.03;5091888;28;19912;-43
2023/03/01 12:29:55;;;;;;;;;;;;;;;8.17;86.73;100277.69;5091898;28;19919;-42
2023/03/01 12:32:35;;;;;;;;;;;;;;;8.07;86.36;100268.28;5090389;28;19912;-43
2023/03/01 12:35:15;;;;;;;;;;;;;;;8.34;85.68;100273.13;5092239;28;19912;-43
2023/03/01 12:37:45;;;;;;;;;;;;;;;8.63;84.52;100271.59;5092126;28;20360;-44
2023/03/01 12:40:27;;;;;;;;;;;;;;;8.58;85.55;100274.78;5091627;28;20006;-42
2023/03/01 12:43:10;;;;;;;;;;;;;;;9.07;84.22;100267.41;5091965;28;20348;-43
2023/03/01 12:45:50;;;;;;;;;;;;;;;8.87;85.84;100267.09;5091432;28;19927;-42
2023/03/01 12:48:34;;;;;;;;;;;;;;;8.87;85.31;100273.25;5091635;28;19912;-42
2023/03/01 12:51:01;;;;;;;;;;;;;;;8.87;83.96;100270.59;5091720;28;19920;-43
2023/03/01 12:53:39;;;;;;;;;;;;;;;8.88;83.61;100263.44;5091913;28;19970;-42